Time;durP1;ratioP1;P1;durP2;ratioP2;P2;SDS_P1;SDS_P2;PMS_P1;PMS_P2;Temp;Humidity;BMP_temperature;BMP_pressure;BME280_temperature;BME280_humidity;BME280_pressure;Samples;Min_cycle;Max_cycle;Signal;HPM_P1;HPM_P2
2022/02/13 00:00:11;;;;;;;9.47;5.67;;;;;;;-0.37;79.42;101567.09;1707194;82;21034;-76
2022/02/13 00:02:39;;;;;;;8.23;5.53;;;;;;;-0.36;79.08;101574.53;1733182;82;21467;-78
2022/02/13 00:05:07;;;;;;;11.87;6.47;;;;;;;-0.35;78.94;101570.92;1707746;82;20994;-76
2022/02/13 00:07:33;;;;;;;7.13;5.63;;;;;;;-0.36;78.87;101574.05;1697613;82;20961;-77
2022/02/13 00:10:01;;;;;;;5.97;5.30;;;;;;;-0.34;78.89;101568.16;1715149;82;21294;-76
2022/02/13 00:12:29;;;;;;;8.63;5.90;;;;;;;-0.32;78.83;101562.23;1740970;81;21781;-75
2022/02/13 00:14:55;;;;;;;7.27;4.90;;;;;;;-0.29;78.75;101573.89;1698226;83;21027;-77
2022/02/13 00:17:23;;;;;;;9.50;5.83;;;;;;;-0.27;78.69;101560.03;1718911;83;21051;-77
2022/02/13 00:19:50;;;;;;;11.43;6.97;;;;;;;-0.25;78.58;101560.74;1683005;83;21089;-77
2022/02/13 00:22:21;;;;;;;8.10;5.23;;;;;;;-0.25;78.39;101566.03;1682166;83;21076;-76
2022/02/13 00:24:47;;;;;;;8.73;5.73;;;;;;;-0.22;78.38;101563.59;1674672;85;22199;-78
2022/02/13 00:27:15;;;;;;;8.83;5.40;;;;;;;-0.22;78.24;101565.75;1687231;84;20966;-77
2022/02/13 00:29:42;;;;;;;7.43;5.67;;;;;;;-0.23;78.06;101570.68;1695710;84;20970;-77
2022/02/13 00:32:09;;;;;;;11.20;6.53;;;;;;;-0.29;77.69;101569.92;1686685;82;20935;-90
2022/02/13 00:34:36;;;;;;;11.50;6.50;;;;;;;-0.35;77.62;101562.99;1690211;82;21118;-82
2022/02/13 00:37:04;;;;;;;8.40;5.90;;;;;;;-0.42;77.77;101569.77;1665563;84;22248;-83
2022/02/13 00:39:30;;;;;;;10.30;6.93;;;;;;;-0.47;78.07;101570.17;1678552;84;21010;-80
2022/02/13 00:41:57;;;;;;;8.40;5.50;;;;;;;-0.56;78.47;101569.16;1728977;82;21003;-87
2022/02/13 00:44:23;;;;;;;8.20;6.93;;;;;;;-0.58;78.77;101563.67;1699960;83;21086;-83
2022/02/13 00:46:51;;;;;;;8.60;5.70;;;;;;;-0.62;79.09;101563.08;1701844;84;21031;-84
2022/02/13 00:49:17;;;;;;;6.77;5.00;;;;;;;-0.66;79.39;101567.43;1702752;84;21101;-81
2022/02/13 00:51:44;;;;;;;5.57;4.83;;;;;;;-0.66;79.63;101559.02;1702799;83;21077;-73
2022/02/13 00:54:10;;;;;;;7.77;4.67;;;;;;;-0.67;79.84;101556.53;1703059;83;20986;-79
2022/02/13 00:56:37;;;;;;;7.23;4.70;;;;;;;-0.69;79.99;101559.30;1700163;84;21578;-77
2022/02/13 00:59:03;;;;;;;6.27;4.57;;;;;;;-0.70;80.21;101553.66;1702878;83;21017;-77
2022/02/13 01:01:30;;;;;;;6.37;4.40;;;;;;;-0.71;80.30;101557.26;1707309;83;21872;-75
2022/02/13 01:03:58;;;;;;;10.03;5.97;;;;;;;-0.74;80.55;101554.05;1681305;83;20964;-79
2022/02/13 01:06:25;;;;;;;5.90;5.00;;;;;;;-0.78;80.72;101556.61;1697196;83;21089;-78
2022/02/13 01:08:51;;;;;;;10.07;5.07;;;;;;;-0.79;80.88;101553.13;1693600;83;21031;-78
2022/02/13 01:11:17;;;;;;;7.93;5.77;;;;;;;-0.81;81.02;101559.01;1682175;84;21067;-75
2022/02/13 01:13:48;;;;;;;8.03;5.93;;;;;;;-0.81;81.19;101562.97;1723807;81;21568;-81
2022/02/13 01:16:15;;;;;;;8.30;5.10;;;;;;;-0.80;81.29;101563.81;1709156;82;20983;-79
2022/02/13 01:18:43;;;;;;;8.90;4.77;;;;;;;-0.76;81.39;101571.34;1716845;83;21019;-72
2022/02/13 01:21:12;;;;;;;5.87;4.40;;;;;;;-0.74;81.38;101560.66;1745101;82;21049;-74
2022/02/13 01:23:40;;;;;;;6.40;4.83;;;;;;;-0.74;81.30;101548.77;1749584;82;21042;-74
2022/02/13 01:26:07;;;;;;;7.13;5.30;;;;;;;-0.80;81.38;101547.96;1748334;82;21794;-77
2022/02/13 01:28:34;;;;;;;8.00;5.07;;;;;;;-0.83;81.50;101545.59;1721845;82;21045;-74
2022/02/13 01:31:02;;;;;;;6.63;4.67;;;;;;;-0.86;81.59;101551.95;1744323;82;21023;-76
2022/02/13 01:33:30;;;;;;;6.07;4.43;;;;;;;-0.85;81.74;101548.84;1725616;82;21051;-75
2022/02/13 01:35:58;;;;;;;6.37;4.93;;;;;;;-0.86;81.80;101549.83;1705729;84;21564;-75
2022/02/13 01:38:24;;;;;;;7.87;5.93;;;;;;;-0.85;81.86;101548.36;1712080;83;21162;-73
2022/02/13 01:40:52;;;;;;;7.87;5.57;;;;;;;-0.85;81.84;101541.75;1718199;83;21019;-75
2022/02/13 01:43:20;;;;;;;6.13;4.23;;;;;;;-0.84;81.87;101542.59;1718357;83;21544;-74
2022/02/13 01:45:47;;;;;;;8.13;5.83;;;;;;;-0.84;81.90;101537.31;1717852;83;21035;-75
2022/02/13 01:48:14;;;;;;;7.13;4.63;;;;;;;-0.85;81.93;101539.11;1723550;82;21059;-73
2022/02/13 01:50:42;;;;;;;7.43;4.60;;;;;;;-0.83;81.96;101539.83;1717673;82;21130;-71
2022/02/13 01:53:11;;;;;;;6.43;4.50;;;;;;;-0.83;81.92;101548.23;1698106;82;21013;-72
2022/02/13 01:55:39;;;;;;;6.40;4.30;;;;;;;-0.84;82.09;101546.08;1733562;82;21019;-71
2022/02/13 01:58:05;;;;;;;7.93;5.53;;;;;;;-0.82;82.09;101541.98;1719475;83;21071;-72
2022/02/13 02:00:33;;;;;;;5.37;4.83;;;;;;;-0.83;82.05;101538.98;1719925;83;21496;-71
2022/02/13 02:03:00;;;;;;;6.17;4.57;;;;;;;-0.83;82.12;101535.87;1719814;83;21064;-72
2022/02/13 02:05:26;;;;;;;6.70;5.73;;;;;;;-0.80;82.09;101541.36;1719675;83;21022;-71
2022/02/13 02:07:52;;;;;;;8.00;5.43;;;;;;;-0.80;82.07;101539.55;1718352;83;21215;-71
2022/02/13 02:10:23;;;;;;;7.43;5.27;;;;;;;-0.80;82.05;101540.04;1718098;83;21047;-72
2022/02/13 02:12:50;;;;;;;10.90;5.40;;;;;;;-0.82;82.06;101541.98;1694143;83;21591;-71
2022/02/13 02:15:17;;;;;;;5.23;4.23;;;;;;;-0.84;82.10;101541.27;1709001;82;21323;-70
2022/02/13 02:17:44;;;;;;;6.17;4.30;;;;;;;-0.86;82.20;101541.39;1734199;82;21490;-71
2022/02/13 02:20:13;;;;;;;6.73;4.67;;;;;;;-0.85;82.19;101542.23;1732144;82;21136;-71
2022/02/13 02:22:48;;;;;;;4.93;4.33;;;;;;;-0.91;82.31;101547.06;1712191;82;21026;-71
2022/02/13 02:25:16;;;;;;;11.13;4.80;;;;;;;-0.90;82.39;101547.42;1732106;82;20971;-71
2022/02/13 02:27:42;;;;;;;11.27;6.23;;;;;;;-0.87;82.38;101553.43;1711619;82;21736;-73
2022/02/13 02:30:09;;;;;;;9.60;5.57;;;;;;;-0.89;82.41;101545.63;1678849;84;21035;-69
2022/02/13 02:32:36;;;;;;;7.17;4.57;;;;;;;-0.86;82.50;101542.71;1707302;82;21045;-70
2022/02/13 02:35:04;;;;;;;6.73;4.10;;;;;;;-0.85;82.53;101544.88;1706981;82;21046;-69
2022/02/13 02:37:30;;;;;;;8.43;5.23;;;;;;;-0.86;82.53;101555.92;1696793;83;21115;-69
2022/02/13 02:39:57;;;;;;;10.83;5.53;;;;;;;-0.89;82.63;101557.03;1703571;84;21122;-69
2022/02/13 02:42:24;;;;;;;8.33;5.00;;;;;;;-0.89;82.65;101554.39;1721598;81;21472;-71
2022/02/13 02:44:50;;;;;;;9.37;4.27;;;;;;;-0.86;82.69;101557.23;1724559;82;21062;-69
2022/02/13 02:47:17;;;;;;;10.60;6.30;;;;;;;-0.86;82.64;101551.15;1678357;84;20999;-70
2022/02/13 02:49:43;;;;;;;9.10;5.50;;;;;;;-0.87;82.72;101543.70;1702611;83;21037;-71
2022/02/13 02:52:10;;;;;;;7.53;4.90;;;;;;;-0.85;82.68;101546.20;1678740;84;22296;-71
2022/02/13 02:54:38;;;;;;;12.87;5.00;;;;;;;-0.85;82.61;101550.16;1707800;82;21050;-70
2022/02/13 02:57:05;;;;;;;9.47;5.50;;;;;;;-0.89;82.54;101545.63;1732833;82;21022;-70
2022/02/13 02:59:31;;;;;;;5.70;4.70;;;;;;;-0.92;82.63;101548.06;1695697;82;21088;-70
2022/02/13 03:01:58;;;;;;;7.43;5.37;;;;;;;-0.92;82.69;101548.54;1704024;83;21082;-70
2022/02/13 03:04:24;;;;;;;5.67;4.23;;;;;;;-0.97;82.72;101536.20;1679651;84;21315;-69
2022/02/13 03:06:50;;;;;;;8.07;5.00;;;;;;;-0.99;82.85;101533.69;1703139;84;21009;-69
2022/02/13 03:09:20;;;;;;;8.60;5.23;;;;;;;-1.01;82.94;101536.12;1720971;82;21508;-71
2022/02/13 03:11:46;;;;;;;7.10;5.57;;;;;;;-1.05;83.01;101537.31;1703586;84;21002;-70
2022/02/13 03:14:13;;;;;;;8.73;5.77;;;;;;;-1.09;83.18;101547.30;1734983;82;21750;-72
2022/02/13 03:16:39;;;;;;;9.17;5.57;;;;;;;-1.10;83.31;101537.70;1720620;83;21269;-73
2022/02/13 03:19:05;;;;;;;10.63;8.33;;;;;;;-1.10;83.40;101534.22;1737094;82;20997;-75
2022/02/13 03:21:32;;;;;;;8.23;5.27;;;;;;;-1.07;83.50;101530.87;1732523;82;20983;-74
2022/02/13 03:23:59;;;;;;;7.63;4.80;;;;;;;-1.03;83.46;101538.87;1721733;82;21064;-74
2022/02/13 03:26:28;;;;;;;7.47;4.57;;;;;;;-1.00;83.38;101543.89;1716186;82;21056;-73
2022/02/13 03:28:53;;;;;;;10.70;4.77;;;;;;;-0.99;83.39;101550.02;1716145;82;21171;-73
2022/02/13 03:31:20;;;;;;;6.60;5.80;;;;;;;-1.02;83.30;101546.32;1715890;82;20996;-73
2022/02/13 03:33:46;;;;;;;8.50;5.90;;;;;;;-1.07;83.34;101549.35;1737678;82;21047;-69
2022/02/13 03:36:13;;;;;;;9.07;6.07;;;;;;;-1.08;83.52;101548.15;1694425;83;21143;-69
2022/02/13 03:38:39;;;;;;;12.60;5.83;;;;;;;-1.07;83.57;101540.59;1663434;84;21037;-69
2022/02/13 03:41:05;;;;;;;12.30;6.53;;;;;;;-1.09;83.57;101538.06;1709223;82;21059;-70
2022/02/13 03:43:32;;;;;;;9.87;6.03;;;;;;;-1.08;83.74;101533.62;1714970;82;20941;-70
2022/02/13 03:45:58;;;;;;;8.60;5.63;;;;;;;-1.07;83.67;101532.19;1714499;82;20996;-70
2022/02/13 03:48:25;;;;;;;9.90;5.37;;;;;;;-1.09;83.70;101527.98;1736014;82;21413;-69
2022/02/13 03:50:52;;;;;;;7.87;5.80;;;;;;;-1.11;83.70;101532.09;1735963;82;21080;-70
2022/02/13 03:53:19;;;;;;;9.20;6.37;;;;;;;-1.16;83.80;101527.69;1725654;82;21103;-69
2022/02/13 03:55:45;;;;;;;8.63;5.93;;;;;;;-1.16;84.01;101529.48;1730993;82;21070;-69
2022/02/13 03:58:12;;;;;;;7.80;5.77;;;;;;;-1.17;84.09;101532.61;1707252;83;21076;-71
2022/02/13 04:00:38;;;;;;;8.30;5.93;;;;;;;-1.17;84.17;101526.00;1706705;83;21486;-71
2022/02/13 04:03:04;;;;;;;12.13;6.37;;;;;;;-1.17;84.24;101529.13;1710789;82;21040;-71
2022/02/13 04:05:32;;;;;;;8.73;6.40;;;;;;;-1.17;84.26;101532.61;1736322;82;22312;-71
2022/02/13 04:08:00;;;;;;;7.73;6.20;;;;;;;-1.22;84.33;101518.11;1736680;82;21215;-70
2022/02/13 04:10:26;;;;;;;10.37;5.97;;;;;;;-1.23;84.53;101524.35;1737699;82;21569;-69
2022/02/13 04:12:53;;;;;;;8.13;6.13;;;;;;;-1.25;84.64;101519.70;1716255;82;21103;-72
2022/02/13 04:15:19;;;;;;;9.00;6.43;;;;;;;-1.28;84.73;101515.50;1736328;82;21113;-72
2022/02/13 04:17:46;;;;;;;10.30;5.97;;;;;;;-1.29;84.88;101510.38;1710368;81;21169;-72
2022/02/13 04:20:13;;;;;;;7.37;6.03;;;;;;;-1.34;85.01;101508.09;1705151;84;20993;-71
2022/02/13 04:22:39;;;;;;;9.37;6.20;;;;;;;-1.38;85.23;101511.95;1707388;82;21061;-72
2022/02/13 04:25:08;;;;;;;9.13;6.27;;;;;;;-1.44;85.46;101505.38;1708371;82;20987;-73
2022/02/13 04:27:36;;;;;;;13.57;8.23;;;;;;;-1.45;85.60;101512.97;1709349;82;21061;-71
2022/02/13 04:30:07;;;;;;;7.83;5.77;;;;;;;-1.43;85.81;101507.54;1735991;81;21102;-72
2022/02/13 04:32:35;;;;;;;;;;;;;;;-1.43;85.90;101503.10;1712196;82;20951;-72
2022/02/13 04:35:02;;;;;;;7.87;6.13;;;;;;;-1.45;85.97;101501.58;1724542;82;20162;-70
2022/02/13 04:37:28;;;;;;;8.37;6.07;;;;;;;-1.49;86.12;101506.27;1705249;84;21054;-71
2022/02/13 04:39:55;;;;;;;8.47;6.17;;;;;;;-1.50;86.33;101506.39;1705240;84;21046;-71
2022/02/13 04:42:21;;;;;;;7.80;6.33;;;;;;;-1.52;86.47;101500.39;1678831;84;21218;-72
2022/02/13 04:44:47;;;;;;;7.43;6.03;;;;;;;-1.55;86.60;101501.50;1682353;82;20991;-71
2022/02/13 04:47:13;;;;;;;7.17;6.07;;;;;;;-1.57;86.89;101506.53;1736313;82;21617;-72
2022/02/13 04:49:40;;;;;;;11.47;6.23;;;;;;;-1.60;87.09;101503.69;1698745;83;21398;-72
2022/02/13 04:52:06;;;;;;;8.50;6.73;;;;;;;-1.58;87.32;101508.33;1705327;84;21070;-74
2022/02/13 04:54:33;;;;;;;11.70;6.27;;;;;;;-1.59;87.45;101501.41;1730852;82;21532;-72
2022/02/13 04:57:01;;;;;;;11.03;7.13;;;;;;;-1.58;87.60;101502.25;1736205;81;21030;-72
2022/02/13 04:59:33;;;;;;;7.77;6.87;;;;;;;-1.58;87.74;101500.92;1736288;82;21039;-72
2022/02/13 05:01:57;;;;;;;11.10;6.87;;;;;;;-1.55;87.77;101498.02;1735847;82;20943;-70
2022/02/13 05:04:24;;;;;;;10.37;5.37;;;;;;;-1.52;87.86;101505.67;1726063;82;20947;-71
2022/02/13 05:06:50;;;;;;;6.57;4.93;;;;;;;-1.51;87.83;101504.72;1679248;84;21165;-71
2022/02/13 05:09:18;;;;;;;8.27;6.57;;;;;;;-1.53;87.95;101508.78;1732490;82;20991;-71
2022/02/13 05:11:48;;;;;;;7.87;6.50;;;;;;;-1.54;88.01;101501.02;1722637;82;21055;-70
2022/02/13 05:14:15;;;;;;;7.93;5.70;;;;;;;-1.54;88.12;101499.70;1698632;84;21528;-70
2022/02/13 05:16:41;;;;;;;10.37;6.43;;;;;;;-1.53;88.13;101509.27;1684537;84;21488;-71
2022/02/13 05:19:07;;;;;;;8.97;6.43;;;;;;;-1.54;88.15;101504.98;1640916;85;21226;-70
2022/02/13 05:21:34;;;;;;;10.93;7.50;;;;;;;-1.53;88.17;101501.35;1664442;85;21603;-72
2022/02/13 05:24:00;;;;;;;8.13;6.67;;;;;;;-1.54;88.23;101508.46;1684569;85;21089;-71
2022/02/13 05:26:27;;;;;;;8.30;6.50;;;;;;;-1.56;88.25;101508.22;1694627;83;21008;-71
2022/02/13 05:28:54;;;;;;;7.07;5.67;;;;;;;-1.55;88.35;101510.73;1693597;83;21020;-71
2022/02/13 05:31:20;;;;;;;8.80;5.10;;;;;;;-1.53;88.30;101518.50;1714067;83;21070;-71
2022/02/13 05:33:47;;;;;;;7.30;6.30;;;;;;;-1.56;88.36;101510.38;1715137;83;20955;-70
2022/02/13 05:36:13;;;;;;;8.67;6.47;;;;;;;-1.54;88.56;101514.21;1714711;83;21598;-70
2022/02/13 05:38:40;;;;;;;9.03;6.07;;;;;;;-1.51;88.58;101516.11;1714803;83;21044;-71
2022/02/13 05:41:06;;;;;;;11.63;7.13;;;;;;;-1.47;88.62;101520.64;1714972;83;21094;-71
2022/02/13 05:43:32;;;;;;;10.03;6.23;;;;;;;-1.41;88.56;101529.38;1694165;83;21298;-72
2022/02/13 05:45:59;;;;;;;10.33;7.80;;;;;;;-1.39;88.37;101528.78;1669822;84;21517;-72
2022/02/13 05:48:25;;;;;;;10.07;7.60;;;;;;;-1.36;88.33;101529.83;1695665;83;21091;-70
2022/02/13 05:50:53;;;;;;;11.47;6.70;;;;;;;-1.32;88.37;101522.00;1670463;83;20968;-72
2022/02/13 05:53:20;;;;;;;9.47;8.13;;;;;;;-1.25;88.32;101536.38;1713301;83;21047;-72
2022/02/13 05:55:46;;;;;;;13.20;10.00;;;;;;;-1.19;88.22;101538.48;1713574;83;21128;-72
2022/02/13 05:58:12;;;;;;;17.10;10.50;;;;;;;-1.13;88.22;101531.38;1713003;83;21591;-72
2022/02/13 06:00:39;;;;;;;15.87;11.97;;;;;;;-1.07;88.05;101536.15;1711189;83;21513;-71
2022/02/13 06:03:05;;;;;;;13.40;9.47;;;;;;;-1.05;87.79;101536.84;1694181;83;21004;-72
2022/02/13 06:05:32;;;;;;;15.03;11.50;;;;;;;-1.04;87.63;101532.39;1694099;83;21044;-73
2022/02/13 06:07:58;;;;;;;20.37;11.37;;;;;;;-1.04;87.50;101534.55;1687895;83;21262;-71
2022/02/13 06:10:25;;;;;;;14.40;10.93;;;;;;;-1.02;87.47;101530.00;1684619;85;20991;-76
2022/02/13 06:12:51;;;;;;;17.47;12.60;;;;;;;-0.98;87.30;101535.84;1679164;83;21029;-72
2022/02/13 06:15:19;;;;;;;19.53;11.57;;;;;;;-0.98;87.21;101528.77;1700756;83;21030;-73
2022/02/13 06:17:46;;;;;;;15.30;10.23;;;;;;;-0.94;87.24;101526.69;1728678;83;21618;-72
2022/02/13 06:20:12;;;;;;;17.47;10.87;;;;;;;-0.89;87.04;101527.14;1706386;82;21119;-73
2022/02/13 06:22:39;;;;;;;17.67;12.17;;;;;;;-0.87;86.96;101530.50;1700130;84;21643;-70
2022/02/13 06:25:07;;;;;;;12.70;8.97;;;;;;;-0.82;86.87;101531.42;1678253;84;21572;-71
2022/02/13 06:27:34;;;;;;;11.50;10.07;;;;;;;-0.79;86.76;101529.35;1700356;82;21019;-70
2022/02/13 06:30:01;;;;;;;16.33;10.20;;;;;;;-0.79;86.53;101524.55;1650986;84;21059;-71
2022/02/13 06:32:29;;;;;;;15.93;10.67;;;;;;;-0.83;86.43;101524.46;1700274;84;21156;-71
2022/02/13 06:34:56;;;;;;;15.43;9.20;;;;;;;-0.80;86.63;101514.94;1691434;83;21022;-69
2022/02/13 06:37:22;;;;;;;16.03;10.13;;;;;;;-0.76;86.48;101509.27;1726658;82;21103;-69
2022/02/13 06:39:48;;;;;;;16.43;9.97;;;;;;;-0.75;86.40;101514.91;1720180;82;20977;-70
2022/02/13 06:42:15;;;;;;;17.30;10.23;;;;;;;-0.76;86.04;101515.03;1727981;83;21051;-69
2022/02/13 06:44:41;;;;;;;21.53;13.73;;;;;;;-0.80;85.98;101520.22;1722599;82;21286;-73
2022/02/13 06:47:08;;;;;;;19.37;14.33;;;;;;;-0.85;85.96;101521.10;1746041;80;22547;-71
2022/02/13 06:49:34;;;;;;;21.27;15.43;;;;;;;-0.82;86.20;101516.42;1719032;82;21083;-73
2022/02/13 06:52:01;;;;;;;20.43;13.43;;;;;;;-0.73;86.33;101520.06;1732227;82;21125;-73
2022/02/13 06:54:27;;;;;;;20.77;15.63;;;;;;;-0.64;86.26;101525.39;1694961;82;21016;-71
2022/02/13 06:56:54;;;;;;;21.20;15.80;;;;;;;-0.56;86.18;101518.11;1732194;82;21736;-73
2022/02/13 06:59:22;;;;;;;20.77;15.10;;;;;;;-0.55;85.86;101518.47;1731932;82;21549;-73
2022/02/13 07:01:48;;;;;;;20.30;13.33;;;;;;;-0.49;85.78;101523.23;1734489;82;21566;-73
2022/02/13 07:04:14;;;;;;;18.97;13.13;;;;;;;-0.45;85.67;101523.31;1725774;82;21009;-72
2022/02/13 07:06:42;;;;;;;20.07;13.57;;;;;;;-0.39;85.52;101533.84;1747270;82;20904;-72
2022/02/13 07:09:09;;;;;;;23.50;13.57;;;;;;;-0.34;85.34;101532.95;1747762;81;21096;-71
2022/02/13 07:11:35;;;;;;;17.97;11.93;;;;;;;-0.31;85.08;101521.61;1747664;82;20960;-76
2022/02/13 07:14:03;;;;;;;16.53;11.73;;;;;;;-0.30;84.71;101526.42;1747433;81;20999;-75
2022/02/13 07:16:29;;;;;;;18.80;11.00;;;;;;;-0.29;84.68;101521.48;1749069;81;20999;-74
2022/02/13 07:18:57;;;;;;;19.17;14.80;;;;;;;-0.29;84.33;101529.42;1702231;82;21000;-74
2022/02/13 07:21:23;;;;;;;16.87;12.03;;;;;;;-0.23;84.39;101528.86;1713344;82;21895;-72
2022/02/13 07:23:50;;;;;;;18.67;13.93;;;;;;;-0.21;84.09;101525.61;1679705;84;21587;-73
2022/02/13 07:26:16;;;;;;;24.27;14.13;;;;;;;-0.20;84.00;101521.52;1659053;84;20990;-73
2022/02/13 07:29:00;;;;;;;24.83;14.67;;;;;;;-0.14;83.69;101525.40;1694006;84;20986;-73
2022/02/13 07:31:30;;;;;;;21.10;15.10;;;;;;;-0.16;83.57;101523.39;1694109;84;21082;-73
2022/02/13 07:33:57;;;;;;;21.63;13.47;;;;;;;-0.16;83.67;101518.11;1714285;83;21213;-73
2022/02/13 07:36:24;;;;;;;25.83;15.53;;;;;;;-0.10;83.61;101521.55;1707113;84;21027;-73
2022/02/13 07:38:50;;;;;;;31.63;15.20;;;;;;;-0.10;83.02;101525.02;1704092;84;21021;-75
2022/02/13 07:41:17;;;;;;;25.00;16.67;;;;;;;-0.05;83.31;101520.12;1704275;84;21486;-75
2022/02/13 07:43:43;;;;;;;25.53;14.53;;;;;;;0.08;83.67;101519.05;1656910;84;21203;-74
2022/02/13 07:46:10;;;;;;;24.97;12.47;;;;;;;0.20;83.76;101521.91;1704324;84;21405;-72
2022/02/13 07:48:37;;;;;;;16.57;11.90;;;;;;;0.26;83.08;101522.69;1680671;84;20943;-74
2022/02/13 07:51:04;;;;;;;14.57;9.07;;;;;;;0.36;82.68;101524.38;1671077;84;21503;-74
2022/02/13 07:53:32;;;;;;;16.33;10.37;;;;;;;0.44;81.55;101519.70;1692609;84;20964;-73
2022/02/13 07:55:59;;;;;;;16.97;9.50;;;;;;;0.48;80.11;101513.14;1692564;84;20994;-74
2022/02/13 07:58:30;;;;;;;12.70;8.83;;;;;;;0.54;79.31;101517.88;1692013;84;21288;-75
2022/02/13 08:00:53;;;;;;;14.50;8.37;;;;;;;0.60;78.75;101501.45;1688616;84;21586;-75
2022/02/13 08:03:21;;;;;;;15.83;7.87;;;;;;;0.65;78.05;101501.02;1689000;84;21032;-74
2022/02/13 08:05:51;;;;;;;14.23;9.73;;;;;;;0.73;77.52;101501.98;1688769;84;21109;-75
2022/02/13 08:08:18;;;;;;;17.17;10.33;;;;;;;0.80;77.12;101503.58;1689066;85;21574;-73
2022/02/13 08:10:45;;;;;;;12.00;8.13;;;;;;;0.85;76.37;101505.31;1691926;84;21149;-76
2022/02/13 08:13:13;;;;;;;13.07;8.07;;;;;;;0.92;75.66;101502.91;1692576;84;20951;-75
2022/02/13 08:15:40;;;;;;;13.87;7.97;;;;;;;0.97;75.40;101494.89;1674409;84;21012;-72
2022/02/13 08:18:12;;;;;;;16.40;9.67;;;;;;;1.02;74.79;101491.31;1678627;84;21104;-72
2022/02/13 08:20:39;;;;;;;13.75;8.63;;;;;;;1.06;73.75;101486.56;1678312;84;21051;-74
2022/02/13 08:23:07;;;;;;;11.80;8.00;;;;;;;1.10;73.71;101491.94;1705320;84;21591;-74
2022/02/13 08:25:34;;;;;;;13.30;7.43;;;;;;;1.15;73.56;101493.67;1678689;84;20935;-73
2022/02/13 08:28:00;;;;;;;27.43;14.97;;;;;;;1.18;72.84;101482.77;1682133;84;21015;-74
2022/02/13 08:30:27;;;;;;;17.17;8.33;;;;;;;1.21;72.78;101493.06;1678406;84;21079;-83
2022/02/13 08:32:53;;;;;;;29.67;12.80;;;;;;;1.26;72.23;101481.55;1691986;82;21062;-82
2022/02/13 08:35:23;;;;;;;11.97;7.53;;;;;;;1.30;72.03;101482.92;1733911;82;21633;-82
2022/02/13 08:37:48;;;;;;;16.57;8.43;;;;;;;1.34;71.35;101485.64;1734040;81;21432;-82
2022/02/13 08:40:15;;;;;;;15.10;8.37;;;;;;;1.36;71.38;101486.32;1708562;82;20991;-83
2022/02/13 08:42:43;;;;;;;12.90;8.40;;;;;;;1.42;71.51;101484.91;1723409;82;21524;-80
2022/02/13 08:45:09;;;;;;;15.37;9.13;;;;;;;1.40;70.16;101478.41;1735763;81;20947;-79
2022/02/13 08:47:36;;;;;;;13.20;7.93;;;;;;;1.43;70.65;101479.47;1737325;82;21474;-82
2022/02/13 08:50:03;;;;;;;17.77;9.63;;;;;;;1.49;70.73;101481.99;1709497;82;21566;-82
2022/02/13 08:52:29;;;;;;;15.10;8.07;;;;;;;1.55;70.65;101483.58;1733906;82;20931;-80
2022/02/13 08:54:56;;;;;;;11.80;8.80;;;;;;;1.60;69.82;101479.16;1733898;82;20984;-80
2022/02/13 08:57:22;;;;;;;15.70;8.30;;;;;;;1.61;69.79;101482.99;1736263;82;21179;-88
2022/02/13 08:59:50;;;;;;;11.70;7.83;;;;;;;1.63;69.29;101491.62;1734736;82;20963;-85
2022/02/13 09:02:17;;;;;;;16.23;7.57;;;;;;;1.67;69.14;101491.69;1709222;82;21009;-86
2022/02/13 09:04:45;;;;;;;13.23;7.57;;;;;;;1.70;68.77;101475.95;1733782;82;21032;-84
2022/02/13 09:07:11;;;;;;;13.90;9.23;;;;;;;1.73;68.12;101481.80;1731693;82;20961;-87
2022/02/13 09:09:41;;;;;;;14.33;8.57;;;;;;;1.76;68.84;101474.05;1733233;82;21586;-87
2022/02/13 09:12:06;;;;;;;18.83;9.83;;;;;;;1.77;69.20;101473.56;1733898;82;22238;-86
2022/02/13 09:14:34;;;;;;;13.53;8.43;;;;;;;1.79;69.47;101478.20;1722481;82;21098;-86
2022/02/13 09:17:00;;;;;;;13.23;8.60;;;;;;;1.82;69.37;101478.77;1697134;83;20992;-83
2022/02/13 09:19:28;;;;;;;11.37;7.10;;;;;;;1.86;69.12;101473.50;1717654;83;21012;-82
2022/02/13 09:21:55;;;;;;;9.83;6.57;;;;;;;1.87;68.04;101477.80;1715476;83;21566;-87
2022/02/13 09:24:22;;;;;;;14.63;9.47;;;;;;;1.85;68.23;101472.31;1675817;84;21089;-90
2022/02/13 09:26:49;;;;;;;13.00;10.10;;;;;;;1.85;68.06;101470.50;1685604;84;21034;-91
2022/02/13 09:29:15;;;;;;;14.87;8.00;;;;;;;1.89;68.02;101472.34;1703015;83;20999;-91
2022/02/13 09:31:43;;;;;;;13.38;8.45;;;;;;;1.93;68.14;101464.42;1704220;82;20963;-88
2022/02/13 09:34:12;;;;;;;11.30;9.00;;;;;;;2.00;68.35;101463.69;1705125;84;20963;-91
2022/02/13 09:36:40;;;;;;;19.02;11.35;;;;;;;2.06;67.65;101464.91;1704307;83;20994;-89
2022/02/13 09:39:07;;;;;;;13.43;7.30;;;;;;;2.10;67.67;101469.77;1703292;84;20922;-89
2022/02/13 09:41:34;;;;;;;12.13;6.93;;;;;;;2.16;67.01;101461.66;1699480;84;22211;-88
2022/02/13 09:44:00;;;;;;;13.72;6.97;;;;;;;2.18;66.62;101453.91;1687030;84;20970;-91
2022/02/13 09:46:29;;;;;;;10.40;7.37;;;;;;;2.23;66.10;101455.27;1674198;85;21049;-91
2022/02/13 09:48:56;;;;;;;10.15;6.35;;;;;;;2.26;65.37;101460.26;1662767;84;21252;-86
2022/02/13 09:51:27;;;;;;;9.58;7.05;;;;;;;2.30;65.67;101447.88;1662194;84;21004;-88
2022/02/13 09:53:53;;;;;;;8.90;6.83;;;;;;;2.37;65.60;101441.45;1672619;83;21055;-89
2022/02/13 09:56:20;;;;;;;7.12;5.90;;;;;;;2.44;65.78;101440.70;1685602;84;21327;-92
2022/02/13 09:58:47;;;;;;;9.43;6.23;;;;;;;2.52;65.68;101439.91;1695681;83;21031;-90
2022/02/13 10:01:35;;;;;;;6.47;5.87;;;;;;;2.58;65.52;101430.84;1715486;83;21089;-89
2022/02/13 10:04:09;;;;;;;9.68;5.65;;;;;;;2.64;64.31;101430.69;1696652;83;20996;-90
2022/02/13 10:06:36;;;;;;;9.40;5.97;;;;;;;2.69;64.20;101427.07;1698554;83;21541;-91
2022/02/13 10:09:03;;;;;;;13.10;6.58;;;;;;;2.73;64.00;101413.84;1696312;83;20908;-90
2022/02/13 10:11:35;;;;;;;11.03;5.92;;;;;;;2.77;64.09;101420.50;1718531;83;21453;-91
2022/02/13 10:14:17;;;;;;;12.60;6.28;;;;;;;2.83;64.02;101425.69;1677141;84;21125;-89
2022/02/13 10:16:50;;;;;;;10.28;6.33;;;;;;;2.87;63.04;101425.22;1727548;82;20998;-83
2022/02/13 10:19:25;;;;;;;12.98;7.10;;;;;;;2.88;62.87;101414.90;1677155;84;21006;-85
2022/02/13 10:21:54;;;;;;;8.23;5.92;;;;;;;2.91;62.98;101404.47;1733479;82;21232;-93
2022/02/13 10:24:38;;;;;;;8.33;6.40;;;;;;;2.97;63.15;101401.19;1710595;82;21210;-92
2022/02/13 10:27:33;;;;;;;13.00;6.22;;;;;;;3.04;62.46;101396.88;1711202;82;21164;-89
2022/02/13 10:30:08;;;;;;;10.60;5.92;;;;;;;3.07;62.00;101393.40;1733840;82;20978;-86
2022/02/13 10:32:47;;;;;;;11.95;6.53;;;;;;;3.15;62.04;101385.14;1734393;82;20998;-91
2022/02/13 10:35:24;;;;;;;6.67;4.72;;;;;;;3.20;61.31;101393.47;1735002;82;20987;-96
2022/02/13 10:38:00;;;;;;;6.42;5.37;;;;;;;3.22;61.05;101381.66;1736789;80;20985;-86
2022/02/13 10:40:32;;;;;;;7.10;5.42;;;;;;;3.24;60.58;101379.69;1734475;82;21718;-83
2022/02/13 10:43:09;;;;;;;9.98;5.90;;;;;;;3.26;60.28;101383.53;1708257;82;21089;-86
2022/02/13 10:45:40;;;;;;;8.95;4.83;;;;;;;3.25;60.72;101388.50;1733218;82;20974;-87
2022/02/13 10:48:11;;;;;;;7.60;4.85;;;;;;;3.25;60.15;101372.06;1708270;82;20968;-86
2022/02/13 10:50:40;;;;;;;5.85;5.12;;;;;;;3.26;60.17;101360.92;1734183;82;21805;-86
2022/02/13 10:53:08;;;;;;;6.92;4.47;;;;;;;3.29;60.07;101358.77;1708487;82;21054;-87
2022/02/13 10:55:37;;;;;;;5.28;4.37;;;;;;;3.32;59.35;101367.74;1733725;82;21507;-89
2022/02/13 10:58:04;;;;;;;4.87;4.35;;;;;;;3.32;59.38;101362.42;1705166;82;21017;-88
2022/02/13 11:00:39;;;;;;;6.42;4.17;;;;;;;3.37;59.80;101350.80;1692778;82;21054;-89
2022/02/13 11:03:08;;;;;;;4.92;3.87;;;;;;;3.45;59.40;101355.33;1723888;82;21054;-90
2022/02/13 11:05:42;;;;;;;5.40;4.90;;;;;;;3.46;58.42;101349.83;1680774;84;21155;-91
2022/02/13 11:08:16;;;;;;;9.88;4.80;;;;;;;3.46;58.71;101339.68;1703206;84;21006;-92
2022/02/13 11:10:51;;;;;;;7.08;6.35;;;;;;;3.51;58.84;101355.49;1704533;82;20975;-87
2022/02/13 11:13:25;;;;;;;6.95;4.22;;;;;;;3.60;58.66;101358.99;1705706;82;21022;-84
2022/02/13 11:15:51;;;;;;;5.08;4.58;;;;;;;3.65;58.34;101339.38;1700503;83;21556;-85
2022/02/13 11:18:31;;;;;;;9.75;4.62;;;;;;;3.68;58.02;101343.06;1664634;85;21095;-87
2022/02/13 11:21:00;;;;;;;5.30;3.75;;;;;;;3.71;57.88;101336.07;1684550;85;21477;-85
2022/02/13 11:23:31;;;;;;;5.15;3.75;;;;;;;3.76;58.05;101339.07;1703971;83;20983;-85